Sullivans Island, South Carolina
Current Conditions -  °F | °C
As of 12:35 AM on Friday 28 Nov 2014 (Local Time) from KJZI Reporting Station
Clear Clear  
Wind Chill: 36°   Ceiling: Unl
Heat Index: 41°   Visibility: 10mi
Dew Point: 37°   Wind: 8mph
Humidity: 87%   Direction: 320°NW
Pressure: 30.29"   Gusts: NA
Location:  32.76°N, 79.84°W
Report Text: KJZI 280535Z AUTO 32007KT 10SM CLR 05/03 A3029 RMK A02 P000
Loading
Personal Weather Stations






























Interactive Weather Map New forecast layout! Learn more

10-Day Weather Forecast

Advertisements
Track Severe Weather on mobile